createdAt,value
2018-07-03T00:01:42.535Z,99132.98
2018-07-03T00:04:13.233Z,99134.24
2018-07-03T00:06:43.021Z,99135.32
2018-07-03T00:09:12.497Z,99138.11
2018-07-03T00:11:41.923Z,99132.92
2018-07-03T00:14:11.311Z,99140.95
2018-07-03T00:16:46.006Z,99139.70
2018-07-03T00:19:15.457Z,99143.09
2018-07-03T00:21:45.449Z,99143.27
2018-07-03T00:24:14.872Z,99135.06
2018-07-03T00:26:44.252Z,99131.84
2018-07-03T00:29:15.305Z,99136.46
2018-07-03T00:31:44.683Z,99139.32
2018-07-03T00:34:14.081Z,99140.55
2018-07-03T00:36:44.228Z,99141.08
2018-07-03T00:39:14.188Z,99131.61
2018-07-03T00:41:43.660Z,99134.70
2018-07-03T00:44:13.070Z,99129.17
2018-07-03T00:46:43.733Z,99131.03
2018-07-03T00:49:13.132Z,99139.16
2018-07-03T00:51:42.561Z,99136.88
2018-07-03T00:54:12.088Z,99140.95
2018-07-03T00:56:42.096Z,99140.63
2018-07-03T00:59:11.564Z,99133.11
2018-07-03T01:01:41.803Z,99141.72
2018-07-03T01:04:11.205Z,99135.73
2018-07-03T01:06:40.700Z,99139.71
2018-07-03T01:09:10.597Z,99132.34
2018-07-03T01:11:40.691Z,99126.47
2018-07-03T01:14:10.334Z,99125.05
2018-07-03T01:16:39.720Z,99124.43
2018-07-03T01:19:09.460Z,99128.09
2018-07-03T01:21:38.865Z,99124.05
2018-07-03T01:24:08.307Z,99117.92
2018-07-03T01:26:37.721Z,99119.77
2018-07-03T01:29:07.177Z,99122.55
2018-07-03T01:31:36.638Z,99118.38
2018-07-03T01:34:06.088Z,99127.84
2018-07-03T01:36:35.945Z,99119.91
2018-07-03T01:39:06.650Z,99123.30
2018-07-03T01:41:37.037Z,99121.61
2018-07-03T01:44:07.411Z,99117.81
2018-07-03T01:46:37.252Z,99114.21
2018-07-03T01:49:07.314Z,99125.55
2018-07-03T01:51:36.714Z,99119.30
2018-07-03T01:54:06.793Z,99125.37
2018-07-03T01:56:36.527Z,99128.32
2018-07-03T01:59:06.404Z,99125.98
2018-07-03T02:01:35.833Z,99125.77
2018-07-03T02:04:05.947Z,99122.48
2018-07-03T02:06:35.512Z,99124.48
2018-07-03T02:09:10.596Z,99126.36
2018-07-03T02:11:41.174Z,99126.63
2018-07-03T02:14:10.525Z,99128.99
2018-07-03T02:16:40.701Z,99134.23
2018-07-03T02:19:10.452Z,99136.02
2018-07-03T02:21:40.139Z,99132.98
2018-07-03T02:24:10.459Z,99145.28
2018-07-03T02:26:40.830Z,99137.51
2018-07-03T02:29:10.126Z,99142.98
2018-07-03T02:31:40.264Z,99140.88
2018-07-03T02:34:10.302Z,99142.88
2018-07-03T02:36:40.464Z,99148.48
2018-07-03T02:39:11.043Z,99148.61
2018-07-03T02:41:41.534Z,99145.27
2018-07-03T02:44:11.023Z,99149.97
2018-07-03T02:46:40.460Z,99150.34
2018-07-03T02:49:09.976Z,99145.91
2018-07-03T02:51:40.086Z,99144.59
2018-07-03T02:54:09.939Z,99148.69
2018-07-03T02:56:39.338Z,99159.56
2018-07-03T02:59:08.770Z,99154.87
2018-07-03T03:01:38.275Z,99151.06
2018-07-03T03:04:08.571Z,99162.95
2018-07-03T03:06:38.030Z,99165.87
2018-07-03T03:09:11.904Z,99167.03
2018-07-03T03:11:41.872Z,99167.03
2018-07-03T03:14:11.313Z,99160.42
2018-07-03T03:16:40.772Z,99168.77
2018-07-03T03:19:10.770Z,99161.10
2018-07-03T03:21:40.172Z,99166.20
2018-07-03T03:24:11.788Z,99166.50
2018-07-03T03:26:42.517Z,99173.25
2018-07-03T03:29:12.640Z,99174.73
2018-07-03T03:31:42.489Z,99176.91
2018-07-03T03:34:11.946Z,99181.70
2018-07-03T03:36:41.378Z,99176.13
2018-07-03T03:39:11.096Z,99174.81
2018-07-03T03:41:41.476Z,99188.79
2018-07-03T03:44:10.872Z,99192.81
2018-07-03T03:46:40.247Z,99193.78
2018-07-03T03:49:10.102Z,99193.05
2018-07-03T03:51:40.181Z,99196.38
2018-07-03T03:54:09.620Z,99196.02
2018-07-03T03:56:39.980Z,99190.95
2018-07-03T03:59:09.331Z,99187.45
2018-07-03T04:01:38.712Z,99189.73
2018-07-03T04:04:09.918Z,99193.55
2018-07-03T04:06:39.385Z,99186.67
2018-07-03T04:09:10.284Z,99186.48
2018-07-03T04:11:39.871Z,99193.13
2018-07-03T04:14:09.312Z,99196.91
2018-07-03T04:16:38.673Z,99194.00
2018-07-03T04:19:09.325Z,99202.77
2018-07-03T04:21:39.548Z,99202.69
2018-07-03T04:24:09.826Z,99202.89
2018-07-03T04:26:39.789Z,99211.42
2018-07-03T04:29:09.216Z,99214.76
2018-07-03T04:31:38.627Z,99219.28
2018-07-03T04:34:08.085Z,99217.29
2018-07-03T04:36:37.690Z,99214.28
2018-07-03T04:39:10.518Z,99220.64
2018-07-03T04:41:39.942Z,99223.59
2018-07-03T04:44:09.351Z,99226.48
2018-07-03T04:46:38.796Z,99222.31
2018-07-03T04:49:08.240Z,99214.97
2018-07-03T04:51:37.707Z,99225.06
2018-07-03T04:54:07.236Z,99223.91
2018-07-03T04:56:36.669Z,99226.12
2018-07-03T04:59:06.782Z,99224.37
2018-07-03T05:01:36.299Z,99220.58
2018-07-03T05:04:05.678Z,99224.83
2018-07-03T05:06:35.169Z,99221.51
2018-07-03T05:09:07.052Z,99228.88
2018-07-03T05:11:37.539Z,99225.98
2018-07-03T05:14:07.251Z,99231.30
2018-07-03T05:16:36.881Z,99231.72
2018-07-03T05:19:07.728Z,99232.20
2018-07-03T05:21:37.149Z,99231.05
2018-07-03T05:24:06.555Z,99234.08
2018-07-03T05:26:36.059Z,99239.78
2018-07-03T05:29:06.392Z,99241.13
2018-07-03T05:31:36.118Z,99237.61
2018-07-03T05:34:06.048Z,99239.11
2018-07-03T05:36:37.468Z,99240.38
2018-07-03T05:39:10.389Z,99244.33
2018-07-03T05:41:40.644Z,99246.66
2018-07-03T05:44:10.057Z,99244.98
2018-07-03T05:46:40.052Z,99253.52
2018-07-03T05:49:09.501Z,99253.37
2018-07-03T05:51:39.287Z,99256.92
2018-07-03T05:54:09.281Z,99254.70
2018-07-03T05:56:39.351Z,99260.10
2018-07-03T05:59:09.585Z,99262.50
2018-07-03T06:01:39.230Z,99258.67
2018-07-03T06:04:09.555Z,99257.49
2018-07-03T06:06:39.037Z,99260.06
2018-07-03T06:09:09.931Z,99256.64
2018-07-03T06:11:39.737Z,99258.73
2018-07-03T06:14:09.247Z,99258.75
2018-07-03T06:16:39.376Z,99250.44
2018-07-03T06:19:09.558Z,99254.73
2018-07-03T06:21:40.195Z,99267.17
2018-07-03T06:24:09.697Z,99260.80
2018-07-03T06:26:39.088Z,99260.19
2018-07-03T06:29:08.557Z,99270.16
2018-07-03T06:31:38.123Z,99263.58
2018-07-03T06:34:07.901Z,99261.16
2018-07-03T06:36:38.556Z,99262.67
2018-07-03T06:39:11.087Z,99261.87
2018-07-03T06:41:40.627Z,99263.92
2018-07-03T06:44:11.187Z,99200.36
2018-07-03T06:46:40.578Z,99269.07
2018-07-03T06:49:10.794Z,99267.64
2018-07-03T06:51:41.308Z,99268.41
2018-07-03T06:54:10.749Z,99269.63
2018-07-03T06:56:40.212Z,99273.39
2018-07-03T06:59:09.659Z,99262.94
2018-07-03T07:01:39.872Z,99267.05
2018-07-03T07:04:09.288Z,99267.55
2018-07-03T07:06:38.739Z,99273.98
2018-07-03T07:09:09.467Z,99265.73
2018-07-03T07:11:39.292Z,99262.45
2018-07-03T07:14:08.764Z,99265.68
2018-07-03T07:16:38.177Z,99259.31
2018-07-03T07:19:07.710Z,99252.58
2018-07-03T07:21:37.110Z,99249.86
2018-07-03T07:24:06.688Z,99254.09
2018-07-03T07:26:36.217Z,99248.33
2018-07-03T07:29:05.626Z,99245.85
2018-07-03T07:31:35.281Z,99250.78
2018-07-03T07:34:05.073Z,99243.09
2018-07-03T07:36:35.289Z,99244.01
2018-07-03T07:39:08.204Z,99244.59
2018-07-03T07:41:38.193Z,99235.25
2018-07-03T07:44:08.327Z,99240.83
2018-07-03T07:46:37.933Z,99238.28
2018-07-03T07:49:07.701Z,99231.33
2018-07-03T07:51:37.140Z,99232.31
2018-07-03T07:54:06.584Z,99223.21
2018-07-03T07:56:36.111Z,99220.33
2018-07-03T07:59:06.585Z,99224.02
2018-07-03T08:01:36.213Z,99221.17
2018-07-03T08:04:05.643Z,99222.59
2018-07-03T08:06:35.052Z,99223.20
2018-07-03T08:09:07.744Z,99214.23
2018-07-03T08:11:37.110Z,99221.53
2018-07-03T08:14:07.482Z,99223.11
2018-07-03T08:16:37.265Z,99222.14
2018-07-03T08:19:06.787Z,99224.08
2018-07-03T08:21:37.316Z,99224.72
2018-07-03T08:24:06.741Z,99214.30
2018-07-03T08:26:36.404Z,99214.53
2018-07-03T08:29:06.016Z,99217.67
2018-07-03T08:31:35.497Z,99211.99
2018-07-03T08:34:04.970Z,99218.42
2018-07-03T08:36:34.971Z,99205.09
2018-07-03T08:39:06.193Z,99214.09
2018-07-03T08:41:36.103Z,99213.56
2018-07-03T08:44:05.551Z,99209.39
2018-07-03T08:46:34.957Z,99210.00
2018-07-03T08:49:06.403Z,99217.27
2018-07-03T08:51:37.029Z,99213.03
2018-07-03T08:54:06.687Z,99217.38
2018-07-03T08:56:36.803Z,99214.55
2018-07-03T08:59:06.639Z,99207.86
2018-07-03T09:01:36.884Z,99209.80
2018-07-03T09:04:06.348Z,99204.09
2018-07-03T09:06:36.820Z,99205.99
2018-07-03T09:09:09.046Z,99214.02
2018-07-03T09:11:41.465Z,99207.13
2018-07-03T09:14:11.020Z,99207.31
2018-07-03T09:16:40.664Z,99208.73
2018-07-03T09:19:10.659Z,99204.28
2018-07-03T09:21:40.652Z,99199.67
2018-07-03T09:24:10.328Z,99204.81
2018-07-03T09:26:39.702Z,99194.00
2018-07-03T09:29:09.192Z,99200.42
2018-07-03T09:31:39.329Z,99205.42
2018-07-03T09:34:09.245Z,99190.65
2018-07-03T09:36:40.265Z,99192.78
2018-07-03T09:39:10.729Z,99195.48
2018-07-03T09:41:40.703Z,99195.08
2018-07-03T09:44:12.045Z,99193.84
2018-07-03T09:46:43.870Z,99193.56
2018-07-03T09:49:13.268Z,99188.00
2018-07-03T09:51:42.680Z,99185.61
2018-07-03T09:54:12.088Z,99186.31
2018-07-03T09:56:41.543Z,99177.39
2018-07-03T09:59:11.998Z,99175.66
2018-07-03T10:01:41.440Z,99182.47
2018-07-03T10:04:10.906Z,99175.79
2018-07-03T10:06:40.381Z,99176.05
2018-07-03T10:09:11.348Z,99174.61
2018-07-03T10:11:41.053Z,99185.60
2018-07-03T10:14:10.876Z,99177.13
2018-07-03T10:16:40.302Z,99177.58
2018-07-03T10:19:09.707Z,99170.14
2018-07-03T10:21:39.257Z,99171.95
2018-07-03T10:24:09.790Z,99176.70
2018-07-03T10:26:39.874Z,99177.94
2018-07-03T10:29:09.237Z,99172.50
2018-07-03T10:31:38.596Z,99163.39
2018-07-03T10:34:08.317Z,99169.73
2018-07-03T10:36:38.480Z,99166.77
2018-07-03T10:39:11.278Z,99162.97
2018-07-03T10:41:41.361Z,99165.25
2018-07-03T10:44:12.767Z,99169.66
2018-07-03T10:46:42.598Z,99169.75
2018-07-03T10:49:19.723Z,99160.40
2018-07-03T10:51:51.488Z,99163.86
2018-07-03T10:54:21.815Z,99155.97
2018-07-03T10:56:51.543Z,99161.19
2018-07-03T10:59:20.947Z,99152.95
2018-07-03T11:01:50.375Z,99159.96
2018-07-03T11:04:19.739Z,99154.98
2018-07-03T11:06:49.140Z,99152.66
2018-07-03T11:09:18.506Z,99154.93
2018-07-03T11:11:47.989Z,99139.27
2018-07-03T11:14:17.452Z,99141.81
2018-07-03T11:16:46.939Z,99140.31
2018-07-03T11:19:17.059Z,99133.89
2018-07-03T11:21:46.594Z,99137.59
2018-07-03T11:24:16.184Z,99129.34
2018-07-03T11:26:45.553Z,99134.41
2018-07-03T11:29:15.088Z,99121.05
2018-07-03T11:31:45.538Z,99130.33
2018-07-03T11:34:15.351Z,99127.13
2018-07-03T11:36:44.862Z,99122.05
2018-07-03T11:39:14.370Z,99121.91
2018-07-03T11:41:43.739Z,99132.54
2018-07-03T11:44:13.122Z,99120.08
2018-07-03T11:46:42.440Z,99112.33
2018-07-03T11:49:11.837Z,99120.39
2018-07-03T11:51:41.242Z,99113.30
2018-07-03T11:54:11.684Z,99114.38
2018-07-03T11:56:41.112Z,99111.33
2018-07-03T11:59:10.510Z,99107.60
2018-07-03T12:01:39.892Z,99104.19
2018-07-03T12:04:09.525Z,99106.75
2018-07-03T12:06:39.442Z,99103.97
2018-07-03T12:09:10.056Z,99100.91
2018-07-03T12:11:39.441Z,99105.30
2018-07-03T12:14:10.070Z,99100.12
2018-07-03T12:16:39.584Z,99102.91
2018-07-03T12:19:09.331Z,99102.48
2018-07-03T12:21:39.058Z,99096.41
2018-07-03T12:24:09.320Z,99096.13
2018-07-03T12:26:39.045Z,99090.67
2018-07-03T12:29:08.542Z,99084.78
2018-07-03T12:31:38.772Z,99091.27
2018-07-03T12:34:08.526Z,99093.98
2018-07-03T12:36:38.543Z,99089.91
2018-07-03T12:39:10.048Z,99088.88
2018-07-03T12:41:39.604Z,99085.13
2018-07-03T12:44:09.139Z,99082.25
2018-07-03T12:46:38.762Z,99085.88
2018-07-03T12:49:08.175Z,99083.59
2018-07-03T12:51:37.572Z,99083.88
2018-07-03T12:54:07.832Z,99083.49
2018-07-03T12:56:37.378Z,99079.92
2018-07-03T12:59:07.803Z,99084.70
2018-07-03T13:01:37.260Z,99075.50
2018-07-03T13:04:08.047Z,99071.39
2018-07-03T13:06:38.427Z,99073.13
2018-07-03T13:09:09.899Z,99077.24
2018-07-03T13:11:40.084Z,99075.69
2018-07-03T13:14:09.576Z,99079.13
2018-07-03T13:16:39.332Z,99067.39
2018-07-03T13:19:08.784Z,99065.78
2018-07-03T13:21:38.215Z,99059.41
2018-07-03T13:24:07.756Z,99062.30
2018-07-03T13:26:38.639Z,99062.02
2018-07-03T13:29:07.915Z,99063.91
2018-07-03T13:31:37.329Z,99061.80
2018-07-03T13:34:07.021Z,99063.48
2018-07-03T13:36:36.689Z,99062.78
2018-07-03T13:39:08.417Z,99058.02
2018-07-03T13:41:37.823Z,99051.78
2018-07-03T13:44:07.870Z,99053.77
2018-07-03T13:46:37.317Z,99051.08
2018-07-03T13:49:06.807Z,99052.42
2018-07-03T13:51:37.461Z,99039.93
2018-07-03T13:54:07.189Z,99042.86
2018-07-03T13:56:37.188Z,99044.05
2018-07-03T13:59:06.938Z,99047.41
2018-07-03T14:01:36.476Z,99043.69
2018-07-03T14:04:06.161Z,99047.91
2018-07-03T14:06:36.119Z,99050.34
2018-07-03T14:09:07.115Z,99045.67
2018-07-03T14:11:36.570Z,99041.75
2018-07-03T14:14:06.240Z,99044.15
2018-07-03T14:16:35.624Z,99047.23
2018-07-03T14:19:05.048Z,99043.91
2018-07-03T14:21:34.480Z,99043.43
2018-07-03T14:24:03.941Z,99039.33
2018-07-03T14:26:33.383Z,99040.81
2018-07-03T14:29:02.823Z,99038.77
2018-07-03T14:31:32.276Z,99031.04
2018-07-03T14:34:01.692Z,99031.04
2018-07-03T14:36:31.320Z,99033.24
2018-07-03T14:39:01.089Z,99030.11
2018-07-03T14:41:30.519Z,99033.63
2018-07-03T14:43:59.916Z,99031.50
2018-07-03T14:46:29.324Z,99029.67
2018-07-03T14:48:59.172Z,99028.23
2018-07-03T14:51:29.020Z,99034.91
2018-07-03T14:53:58.541Z,99033.56
2018-07-03T14:56:28.427Z,99032.08
2018-07-03T14:58:59.058Z,99032.09
2018-07-03T15:01:28.617Z,99034.50
2018-07-03T15:03:57.966Z,99029.66
2018-07-03T15:06:27.470Z,99029.11
2018-07-03T15:08:57.540Z,99029.14
2018-07-03T15:11:27.777Z,99034.78
2018-07-03T15:13:58.059Z,99031.83
2018-07-03T15:16:27.431Z,99033.52
2018-07-03T15:19:02.922Z,99038.13
2018-07-03T15:21:32.413Z,99038.92
2018-07-03T15:24:01.820Z,99039.95
2018-07-03T15:26:31.425Z,99043.37
2018-07-03T15:29:01.590Z,99042.75
2018-07-03T15:31:30.988Z,99042.42
2018-07-03T15:34:01.377Z,98905.59
2018-07-03T15:36:31.583Z,99054.20
2018-07-03T15:39:01.004Z,99047.44
2018-07-03T15:41:30.397Z,99049.44
2018-07-03T15:44:10.959Z,99048.94
2018-07-03T15:46:41.197Z,99048.27
2018-07-03T15:49:13.152Z,99047.95
2018-07-03T15:51:42.742Z,99054.52
2018-07-03T15:54:12.260Z,99047.08
2018-07-03T15:56:41.639Z,99044.03
2018-07-03T15:59:11.088Z,99041.48
2018-07-03T16:01:40.954Z,99044.82
2018-07-03T16:05:22.844Z,99046.70
2018-07-03T16:08:05.979Z,99043.45
2018-07-03T16:10:35.428Z,99044.01
2018-07-03T16:13:04.929Z,99042.66
2018-07-03T16:15:34.406Z,99051.14
2018-07-03T16:18:04.682Z,99052.28
2018-07-03T16:20:39.880Z,99054.16
2018-07-03T16:23:09.592Z,99055.18
2018-07-03T16:25:39.270Z,99056.69
2018-07-03T16:28:08.879Z,99057.38
2018-07-03T16:30:38.232Z,99055.03
2018-07-03T16:33:07.624Z,99061.19
2018-07-03T16:35:37.268Z,99053.29
2018-07-03T16:38:07.300Z,99061.39
2018-07-03T16:40:36.667Z,99057.20
2018-07-03T16:43:06.085Z,99061.08
2018-07-03T16:45:35.623Z,99059.20
2018-07-03T16:48:05.283Z,99054.16
2018-07-03T16:50:35.712Z,99056.55
2018-07-03T16:53:05.149Z,99059.37
2018-07-03T16:55:34.530Z,99065.13
2018-07-03T16:58:03.965Z,99055.72
2018-07-03T17:00:33.986Z,99055.36
2018-07-03T17:03:03.353Z,99056.50
2018-07-03T17:05:32.748Z,99057.45
2018-07-03T17:08:02.610Z,99049.57
2018-07-03T17:10:33.277Z,99051.73
2018-07-03T17:13:02.730Z,99056.15
2018-07-03T17:15:32.899Z,99051.07
2018-07-03T17:18:02.363Z,99049.48
2018-07-03T17:20:31.810Z,99051.72
2018-07-03T17:23:01.996Z,99051.38
2018-07-03T17:25:32.357Z,99050.38
2018-07-03T17:28:02.344Z,99043.98
2018-07-03T17:30:32.917Z,99042.03
2018-07-03T17:33:02.895Z,99038.75
2018-07-03T17:35:32.513Z,99040.97
2018-07-03T17:38:03.695Z,99036.20
2018-07-03T17:40:44.113Z,99036.84
2018-07-03T17:44:04.423Z,99036.30
2018-07-03T17:46:34.046Z,99032.08
2018-07-03T17:49:05.441Z,99037.03
2018-07-03T17:51:34.924Z,99041.95
2018-07-03T17:54:04.506Z,99042.11
2018-07-03T17:56:34.048Z,99038.92
2018-07-03T17:59:03.543Z,99036.03
2018-07-03T18:01:33.183Z,99039.63
2018-07-03T18:04:02.546Z,99043.88
2018-07-03T18:06:31.944Z,99040.17
2018-07-03T18:09:01.402Z,99047.05
2018-07-03T18:11:30.783Z,99045.86
2018-07-03T18:14:00.579Z,99039.97
2018-07-03T18:16:30.064Z,99039.80
2018-07-03T18:20:03.813Z,99037.97
2018-07-03T18:22:33.455Z,99036.27
2018-07-03T18:25:03.482Z,99046.09
2018-07-03T18:27:32.916Z,99043.08
2018-07-03T18:30:02.636Z,99043.62
2018-07-03T18:32:32.180Z,99048.66
2018-07-03T18:35:01.605Z,99049.52
2018-07-03T18:37:31.460Z,99051.72
2018-07-03T18:40:01.007Z,99057.62
2018-07-03T18:42:30.605Z,99053.11
2018-07-03T18:45:00.375Z,99057.85
2018-07-03T18:47:30.265Z,99054.78
2018-07-03T18:49:59.760Z,99054.48
2018-07-03T18:52:29.192Z,99057.33
2018-07-03T18:54:58.704Z,99052.61
2018-07-03T18:57:28.095Z,99061.72
2018-07-03T18:59:57.827Z,99062.16
2018-07-03T19:02:27.189Z,99073.22
2018-07-03T19:04:58.358Z,99075.00
2018-07-03T19:07:27.920Z,98924.22
2018-07-03T19:09:57.404Z,99079.20
2018-07-03T19:12:26.856Z,99082.75
2018-07-03T19:14:57.097Z,99089.71
2018-07-03T19:17:26.605Z,99083.95
2018-07-03T19:19:56.105Z,99086.91
2018-07-03T19:22:26.550Z,99086.27
2018-07-03T19:24:56.793Z,99090.98
2018-07-03T19:27:26.291Z,99096.70
2018-07-03T19:29:55.755Z,99098.09
2018-07-03T19:32:25.107Z,99101.98
2018-07-03T19:34:54.583Z,99103.51
2018-07-03T19:37:24.039Z,99101.79
2018-07-03T19:39:55.244Z,99111.91
2018-07-03T19:42:24.681Z,99106.05
2018-07-03T19:44:57.420Z,99110.25
2018-07-03T19:47:26.894Z,99115.75
2018-07-03T19:49:57.627Z,99111.21
2018-07-03T19:52:27.455Z,99110.21
2018-07-03T19:54:56.901Z,99097.49
2018-07-03T19:57:26.397Z,99116.99
2018-07-03T19:59:55.818Z,99118.20
2018-07-03T20:02:25.177Z,99120.16
2018-07-03T20:04:56.352Z,99122.42
2018-07-03T20:07:25.841Z,99127.81
2018-07-03T20:09:55.348Z,99124.17
2018-07-03T20:12:25.031Z,99127.08
2018-07-03T20:14:54.613Z,99125.45
2018-07-03T20:17:24.072Z,99118.84
2018-07-03T20:19:53.639Z,99122.00
2018-07-03T20:22:24.897Z,99121.95
2018-07-03T20:24:54.676Z,99126.08
2018-07-03T20:27:24.536Z,99122.01
2018-07-03T20:29:54.088Z,99127.93
2018-07-03T20:32:24.493Z,99123.69
2018-07-03T20:34:53.996Z,99131.73
2018-07-03T20:37:23.466Z,99134.03
2018-07-03T20:39:52.832Z,99122.80
2018-07-03T20:42:22.815Z,99125.20
2018-07-03T20:44:53.076Z,99122.44
2018-07-03T20:47:22.434Z,99121.92
2018-07-03T20:49:51.799Z,99117.56
2018-07-03T20:52:21.219Z,99121.10
2018-07-03T20:54:50.712Z,99083.78
2018-07-03T20:57:20.296Z,99122.83
2018-07-03T20:59:49.879Z,99122.05
2018-07-03T21:02:21.267Z,99119.70
2018-07-03T21:04:50.985Z,99115.69
2018-07-03T21:07:20.414Z,99120.78
2018-07-03T21:09:51.247Z,99114.19
2018-07-03T21:12:21.284Z,99117.02
2018-07-03T21:14:51.451Z,99116.19
2018-07-03T21:17:21.000Z,99117.31
2018-07-03T21:19:50.464Z,99109.88
2018-07-03T21:22:19.979Z,99110.74
2018-07-03T21:24:50.369Z,99109.98
2018-07-03T21:27:20.620Z,99112.92
2018-07-03T21:29:50.284Z,99113.11
2018-07-03T21:32:19.650Z,99107.82
2018-07-03T21:34:49.066Z,99107.17
2018-07-03T21:37:18.540Z,99103.98
2018-07-03T21:39:48.106Z,99101.84
2018-07-03T21:42:17.540Z,99093.97
2018-07-03T21:44:47.047Z,99095.48
2018-07-03T21:47:17.133Z,99095.02
2018-07-03T21:49:46.511Z,99095.27
2018-07-03T21:52:16.662Z,99096.11
2018-07-03T21:54:46.237Z,99099.16
2018-07-03T21:57:17.716Z,99089.65
2018-07-03T21:59:47.091Z,99092.48
2018-07-03T22:02:16.599Z,99092.53
2018-07-03T22:04:46.412Z,99100.77
2018-07-03T22:07:15.884Z,99098.83
2018-07-03T22:09:47.431Z,99097.36
2018-07-03T22:12:16.902Z,99101.20
2018-07-03T22:14:46.964Z,99100.69
2018-07-03T22:17:16.680Z,99101.08
2018-07-03T22:19:46.077Z,99105.47
2018-07-03T22:22:17.136Z,99107.58
2018-07-03T22:24:47.169Z,99103.01
2018-07-03T22:27:16.992Z,99099.75
2018-07-03T22:29:47.380Z,99102.56
2018-07-03T22:32:20.139Z,99105.03
2018-07-03T22:35:00.106Z,99101.79
2018-07-03T22:37:41.165Z,99103.13
2018-07-03T22:40:23.677Z,99103.08
2018-07-03T22:43:03.458Z,99102.96
2018-07-03T22:45:44.106Z,99101.90
2018-07-03T22:48:29.176Z,99104.08
2018-07-03T22:51:00.767Z,99104.53
2018-07-03T22:53:30.305Z,99116.08
2018-07-03T22:56:02.272Z,99099.73
2018-07-03T22:58:33.080Z,99110.45
2018-07-03T23:01:03.844Z,99103.53
2018-07-03T23:15:33.812Z,99101.47
2018-07-03T23:18:04.439Z,99104.05
2018-07-03T23:20:36.743Z,99104.30
2018-07-03T23:23:08.401Z,99101.37
2018-07-03T23:25:38.917Z,99110.34
2018-07-03T23:28:08.355Z,99107.55
2018-07-03T23:30:39.193Z,99105.00
2018-07-03T23:33:09.828Z,99107.19
2018-07-03T23:35:40.389Z,99105.75
2018-07-03T23:38:10.884Z,99110.34
2018-07-03T23:40:40.372Z,99110.33
2018-07-03T23:43:10.760Z,99120.03
2018-07-03T23:45:50.860Z,99114.70
2018-07-03T23:48:32.471Z,99117.97
2018-07-03T23:51:13.652Z,99118.58
2018-07-03T23:53:54.080Z,99114.82
2018-07-03T23:56:36.631Z,99113.24
2018-07-03T23:59:17.576Z,99109.47
